sensor_id;sensor_type;location;lat;lon;timestamp;P1;durP1;ratioP1;P2;durP2;ratioP2
65206;SDS011;58477;48.072;11.970;2023-04-24T00:01:23;3.83;;;1.00;;
65206;SDS011;58477;48.072;11.970;2023-04-24T00:03:48;1.67;;;1.58;;
65206;SDS011;58477;48.072;11.970;2023-04-24T00:06:14;2.08;;;1.27;;
65206;SDS011;58477;48.072;11.970;2023-04-24T00:08:42;1.20;;;1.10;;
65206;SDS011;58477;48.072;11.970;2023-04-24T00:11:07;5.63;;;1.30;;
65206;SDS011;58477;48.072;11.970;2023-04-24T00:13:34;2.80;;;1.20;;
65206;SDS011;58477;48.072;11.970;2023-04-24T00:16:00;1.33;;;1.23;;
65206;SDS011;58477;48.072;11.970;2023-04-24T00:18:25;2.60;;;1.02;;
65206;SDS011;58477;48.072;11.970;2023-04-24T00:20:51;1.40;;;1.10;;
65206;SDS011;58477;48.072;11.970;2023-04-24T00:23:17;1.55;;;1.38;;
65206;SDS011;58477;48.072;11.970;2023-04-24T00:25:42;1.20;;;1.10;;
65206;SDS011;58477;48.072;11.970;2023-04-24T00:28:07;2.58;;;0.90;;
65206;SDS011;58477;48.072;11.970;2023-04-24T00:30:33;3.00;;;0.90;;
65206;SDS011;58477;48.072;11.970;2023-04-24T00:32:59;1.10;;;1.00;;
65206;SDS011;58477;48.072;11.970;2023-04-24T00:35:24;2.13;;;1.17;;
65206;SDS011;58477;48.072;11.970;2023-04-24T00:37:50;1.48;;;1.33;;
65206;SDS011;58477;48.072;11.970;2023-04-24T00:40:15;2.22;;;1.10;;
65206;SDS011;58477;48.072;11.970;2023-04-24T00:42:41;2.58;;;1.10;;
65206;SDS011;58477;48.072;11.970;2023-04-24T00:45:08;1.63;;;1.05;;
65206;SDS011;58477;48.072;11.970;2023-04-24T00:47:34;6.07;;;1.10;;
65206;SDS011;58477;48.072;11.970;2023-04-24T00:50:03;0.70;;;0.70;;
65206;SDS011;58477;48.072;11.970;2023-04-24T00:52:29;2.53;;;0.98;;
65206;SDS011;58477;48.072;11.970;2023-04-24T00:54:57;1.75;;;1.00;;
65206;SDS011;58477;48.072;11.970;2023-04-24T00:57:22;3.63;;;1.00;;
65206;SDS011;58477;48.072;11.970;2023-04-24T00:59:48;3.30;;;0.98;;
65206;SDS011;58477;48.072;11.970;2023-04-24T01:02:14;1.13;;;0.75;;
65206;SDS011;58477;48.072;11.970;2023-04-24T01:04:40;0.80;;;0.80;;
65206;SDS011;58477;48.072;11.970;2023-04-24T01:07:06;2.08;;;1.20;;
65206;SDS011;58477;48.072;11.970;2023-04-24T01:09:36;1.30;;;0.80;;
65206;SDS011;58477;48.072;11.970;2023-04-24T01:12:03;0.70;;;0.70;;
65206;SDS011;58477;48.072;11.970;2023-04-24T01:14:29;1.15;;;0.80;;
65206;SDS011;58477;48.072;11.970;2023-04-24T01:16:55;1.42;;;0.90;;
65206;SDS011;58477;48.072;11.970;2023-04-24T01:19:22;2.47;;;0.80;;
65206;SDS011;58477;48.072;11.970;2023-04-24T01:21:48;0.52;;;0.52;;
65206;SDS011;58477;48.072;11.970;2023-04-24T01:24:16;0.85;;;0.75;;
65206;SDS011;58477;48.072;11.970;2023-04-24T01:26:44;0.90;;;0.70;;
65206;SDS011;58477;48.072;11.970;2023-04-24T01:29:10;0.80;;;0.70;;
65206;SDS011;58477;48.072;11.970;2023-04-24T01:31:37;1.02;;;0.70;;
65206;SDS011;58477;48.072;11.970;2023-04-24T01:34:03;1.27;;;0.52;;
65206;SDS011;58477;48.072;11.970;2023-04-24T01:36:29;0.63;;;0.60;;
65206;SDS011;58477;48.072;11.970;2023-04-24T01:38:56;0.60;;;0.60;;
65206;SDS011;58477;48.072;11.970;2023-04-24T01:41:24;0.77;;;0.63;;
65206;SDS011;58477;48.072;11.970;2023-04-24T01:43:50;0.70;;;0.57;;
65206;SDS011;58477;48.072;11.970;2023-04-24T01:46:18;1.20;;;0.60;;
65206;SDS011;58477;48.072;11.970;2023-04-24T01:48:44;1.65;;;0.60;;
65206;SDS011;58477;48.072;11.970;2023-04-24T01:51:10;1.00;;;0.63;;
65206;SDS011;58477;48.072;11.970;2023-04-24T01:53:36;0.93;;;0.60;;
65206;SDS011;58477;48.072;11.970;2023-04-24T01:56:01;0.52;;;0.52;;
65206;SDS011;58477;48.072;11.970;2023-04-24T01:58:28;0.75;;;0.60;;
65206;SDS011;58477;48.072;11.970;2023-04-24T02:00:56;0.40;;;0.40;;
65206;SDS011;58477;48.072;11.970;2023-04-24T02:03:22;1.05;;;0.63;;
65206;SDS011;58477;48.072;11.970;2023-04-24T02:05:48;1.15;;;0.77;;
65206;SDS011;58477;48.072;11.970;2023-04-24T02:08:13;0.50;;;0.50;;
65206;SDS011;58477;48.072;11.970;2023-04-24T02:10:39;3.28;;;0.50;;
65206;SDS011;58477;48.072;11.970;2023-04-24T02:13:04;1.40;;;0.52;;
65206;SDS011;58477;48.072;11.970;2023-04-24T02:15:30;1.10;;;0.50;;
65206;SDS011;58477;48.072;11.970;2023-04-24T02:17:55;0.40;;;0.40;;
65206;SDS011;58477;48.072;11.970;2023-04-24T02:20:20;0.50;;;0.50;;
65206;SDS011;58477;48.072;11.970;2023-04-24T02:22:46;0.40;;;0.40;;
65206;SDS011;58477;48.072;11.970;2023-04-24T02:25:12;0.88;;;0.45;;
65206;SDS011;58477;48.072;11.970;2023-04-24T02:27:37;0.52;;;0.52;;
65206;SDS011;58477;48.072;11.970;2023-04-24T02:30:04;0.50;;;0.40;;
65206;SDS011;58477;48.072;11.970;2023-04-24T02:32:31;0.40;;;0.40;;
65206;SDS011;58477;48.072;11.970;2023-04-24T02:34:56;0.45;;;0.40;;
65206;SDS011;58477;48.072;11.970;2023-04-24T02:37:21;0.85;;;0.40;;
65206;SDS011;58477;48.072;11.970;2023-04-24T02:39:47;0.40;;;0.40;;
65206;SDS011;58477;48.072;11.970;2023-04-24T02:42:12;0.90;;;0.68;;
65206;SDS011;58477;48.072;11.970;2023-04-24T02:44:37;1.05;;;0.40;;
65206;SDS011;58477;48.072;11.970;2023-04-24T02:47:03;0.50;;;0.50;;
65206;SDS011;58477;48.072;11.970;2023-04-24T02:49:29;0.50;;;0.50;;
65206;SDS011;58477;48.072;11.970;2023-04-24T02:51:55;1.15;;;0.60;;
65206;SDS011;58477;48.072;11.970;2023-04-24T02:54:20;0.40;;;0.40;;
65206;SDS011;58477;48.072;11.970;2023-04-24T02:56:45;0.88;;;0.32;;
65206;SDS011;58477;48.072;11.970;2023-04-24T02:59:11;1.00;;;0.38;;
65206;SDS011;58477;48.072;11.970;2023-04-24T03:01:37;1.13;;;0.50;;
65206;SDS011;58477;48.072;11.970;2023-04-24T03:04:02;0.57;;;0.40;;
65206;SDS011;58477;48.072;11.970;2023-04-24T03:06:28;0.45;;;0.40;;
65206;SDS011;58477;48.072;11.970;2023-04-24T03:08:54;0.65;;;0.65;;
65206;SDS011;58477;48.072;11.970;2023-04-24T03:11:19;1.30;;;0.50;;
65206;SDS011;58477;48.072;11.970;2023-04-24T03:13:45;0.60;;;0.40;;
65206;SDS011;58477;48.072;11.970;2023-04-24T03:16:10;0.47;;;0.47;;
65206;SDS011;58477;48.072;11.970;2023-04-24T03:18:36;0.45;;;0.43;;
65206;SDS011;58477;48.072;11.970;2023-04-24T03:21:02;0.38;;;0.32;;
65206;SDS011;58477;48.072;11.970;2023-04-24T03:23:29;0.38;;;0.38;;
65206;SDS011;58477;48.072;11.970;2023-04-24T03:25:55;0.40;;;0.40;;
65206;SDS011;58477;48.072;11.970;2023-04-24T03:28:20;1.92;;;0.55;;
65206;SDS011;58477;48.072;11.970;2023-04-24T03:30:58;1.17;;;0.50;;
65206;SDS011;58477;48.072;11.970;2023-04-24T03:33:27;0.28;;;0.28;;
65206;SDS011;58477;48.072;11.970;2023-04-24T03:35:58;0.47;;;0.45;;
65206;SDS011;58477;48.072;11.970;2023-04-24T03:38:25;0.50;;;0.50;;
65206;SDS011;58477;48.072;11.970;2023-04-24T03:41:16;0.40;;;0.40;;
65206;SDS011;58477;48.072;11.970;2023-04-24T03:43:45;8.88;;;0.52;;
65206;SDS011;58477;48.072;11.970;2023-04-24T03:46:11;0.50;;;0.47;;
65206;SDS011;58477;48.072;11.970;2023-04-24T03:48:41;1.70;;;0.43;;
65206;SDS011;58477;48.072;11.970;2023-04-24T03:51:08;1.15;;;0.45;;
65206;SDS011;58477;48.072;11.970;2023-04-24T03:53:35;0.65;;;0.45;;
65206;SDS011;58477;48.072;11.970;2023-04-24T03:56:01;2.05;;;0.50;;
65206;SDS011;58477;48.072;11.970;2023-04-24T03:58:28;0.52;;;0.50;;
65206;SDS011;58477;48.072;11.970;2023-04-24T04:00:54;0.40;;;0.40;;
65206;SDS011;58477;48.072;11.970;2023-04-24T04:03:51;0.55;;;0.50;;
65206;SDS011;58477;48.072;11.970;2023-04-24T04:06:21;0.80;;;0.50;;
65206;SDS011;58477;48.072;11.970;2023-04-24T04:08:48;0.50;;;0.50;;
65206;SDS011;58477;48.072;11.970;2023-04-24T04:11:13;0.68;;;0.52;;
65206;SDS011;58477;48.072;11.970;2023-04-24T04:13:39;2.15;;;0.50;;
65206;SDS011;58477;48.072;11.970;2023-04-24T04:16:04;1.23;;;0.70;;
65206;SDS011;58477;48.072;11.970;2023-04-24T04:18:31;0.40;;;0.40;;
65206;SDS011;58477;48.072;11.970;2023-04-24T04:20:56;0.60;;;0.60;;
65206;SDS011;58477;48.072;11.970;2023-04-24T04:23:22;0.52;;;0.52;;
65206;SDS011;58477;48.072;11.970;2023-04-24T04:26:00;0.85;;;0.63;;
65206;SDS011;58477;48.072;11.970;2023-04-24T04:28:36;0.40;;;0.40;;
65206;SDS011;58477;48.072;11.970;2023-04-24T04:31:03;0.73;;;0.60;;
65206;SDS011;58477;48.072;11.970;2023-04-24T04:33:29;0.80;;;0.80;;
65206;SDS011;58477;48.072;11.970;2023-04-24T04:35:54;0.50;;;0.43;;
65206;SDS011;58477;48.072;11.970;2023-04-24T04:38:23;0.50;;;0.50;;
65206;SDS011;58477;48.072;11.970;2023-04-24T04:41:11;0.80;;;0.55;;
65206;SDS011;58477;48.072;11.970;2023-04-24T04:43:37;1.08;;;0.50;;
65206;SDS011;58477;48.072;11.970;2023-04-24T04:46:04;0.40;;;0.40;;
65206;SDS011;58477;48.072;11.970;2023-04-24T04:48:42;0.65;;;0.50;;
65206;SDS011;58477;48.072;11.970;2023-04-24T04:51:08;1.95;;;0.60;;
65206;SDS011;58477;48.072;11.970;2023-04-24T04:53:34;0.52;;;0.50;;
65206;SDS011;58477;48.072;11.970;2023-04-24T04:56:00;0.82;;;0.55;;
65206;SDS011;58477;48.072;11.970;2023-04-24T04:58:33;1.95;;;0.80;;
65206;SDS011;58477;48.072;11.970;2023-04-24T05:01:00;1.08;;;0.70;;
65206;SDS011;58477;48.072;11.970;2023-04-24T05:03:30;0.95;;;0.57;;
65206;SDS011;58477;48.072;11.970;2023-04-24T05:06:06;2.60;;;0.68;;
65206;SDS011;58477;48.072;11.970;2023-04-24T05:08:34;1.42;;;0.70;;
65206;SDS011;58477;48.072;11.970;2023-04-24T05:11:01;1.23;;;0.50;;
65206;SDS011;58477;48.072;11.970;2023-04-24T05:13:28;1.80;;;0.80;;
65206;SDS011;58477;48.072;11.970;2023-04-24T05:15:55;3.92;;;0.80;;
65206;SDS011;58477;48.072;11.970;2023-04-24T05:18:20;3.60;;;0.60;;
65206;SDS011;58477;48.072;11.970;2023-04-24T05:20:46;1.30;;;0.60;;
65206;SDS011;58477;48.072;11.970;2023-04-24T05:23:12;2.55;;;0.70;;
65206;SDS011;58477;48.072;11.970;2023-04-24T05:25:40;2.35;;;0.70;;
65206;SDS011;58477;48.072;11.970;2023-04-24T05:28:09;2.22;;;0.73;;
65206;SDS011;58477;48.072;11.970;2023-04-24T05:30:35;0.68;;;0.68;;
65206;SDS011;58477;48.072;11.970;2023-04-24T05:33:01;0.50;;;0.50;;
65206;SDS011;58477;48.072;11.970;2023-04-24T05:35:27;2.33;;;0.70;;
65206;SDS011;58477;48.072;11.970;2023-04-24T05:37:52;1.95;;;0.80;;
65206;SDS011;58477;48.072;11.970;2023-04-24T05:40:18;2.75;;;0.73;;
65206;SDS011;58477;48.072;11.970;2023-04-24T05:42:43;0.70;;;0.70;;
65206;SDS011;58477;48.072;11.970;2023-04-24T05:45:09;0.73;;;0.73;;
65206;SDS011;58477;48.072;11.970;2023-04-24T05:47:41;2.40;;;0.90;;
65206;SDS011;58477;48.072;11.970;2023-04-24T05:50:06;3.30;;;1.15;;
65206;SDS011;58477;48.072;11.970;2023-04-24T05:52:32;1.33;;;0.80;;
65206;SDS011;58477;48.072;11.970;2023-04-24T05:55:00;0.60;;;0.60;;
65206;SDS011;58477;48.072;11.970;2023-04-24T05:57:31;1.50;;;0.85;;
65206;SDS011;58477;48.072;11.970;2023-04-24T06:00:00;3.67;;;0.90;;
65206;SDS011;58477;48.072;11.970;2023-04-24T06:02:27;1.65;;;0.80;;
65206;SDS011;58477;48.072;11.970;2023-04-24T06:04:58;0.80;;;0.70;;
65206;SDS011;58477;48.072;11.970;2023-04-24T06:07:25;0.52;;;0.52;;
65206;SDS011;58477;48.072;11.970;2023-04-24T06:09:54;6.03;;;0.70;;
65206;SDS011;58477;48.072;11.970;2023-04-24T06:12:20;0.73;;;0.60;;
65206;SDS011;58477;48.072;11.970;2023-04-24T06:14:59;1.55;;;0.68;;
65206;SDS011;58477;48.072;11.970;2023-04-24T06:17:49;0.43;;;0.43;;
65206;SDS011;58477;48.072;11.970;2023-04-24T06:20:16;0.50;;;0.50;;
65206;SDS011;58477;48.072;11.970;2023-04-24T06:22:41;0.82;;;0.50;;
65206;SDS011;58477;48.072;11.970;2023-04-24T06:25:07;0.52;;;0.35;;
65206;SDS011;58477;48.072;11.970;2023-04-24T06:27:32;0.30;;;0.30;;
65206;SDS011;58477;48.072;11.970;2023-04-24T06:29:58;0.40;;;0.38;;
65206;SDS011;58477;48.072;11.970;2023-04-24T06:32:23;3.13;;;0.45;;
65206;SDS011;58477;48.072;11.970;2023-04-24T06:34:51;0.70;;;0.30;;
65206;SDS011;58477;48.072;11.970;2023-04-24T06:37:17;0.40;;;0.30;;
65206;SDS011;58477;48.072;11.970;2023-04-24T06:39:44;1.15;;;0.38;;
65206;SDS011;58477;48.072;11.970;2023-04-24T06:42:09;0.32;;;0.30;;
65206;SDS011;58477;48.072;11.970;2023-04-24T06:44:35;3.00;;;0.30;;
65206;SDS011;58477;48.072;11.970;2023-04-24T06:47:06;0.17;;;0.17;;
65206;SDS011;58477;48.072;11.970;2023-04-24T06:49:33;0.28;;;0.28;;
65206;SDS011;58477;48.072;11.970;2023-04-24T06:51:59;0.50;;;0.30;;
65206;SDS011;58477;48.072;11.970;2023-04-24T06:54:25;1.50;;;0.68;;
65206;SDS011;58477;48.072;11.970;2023-04-24T06:56:50;0.47;;;0.30;;
65206;SDS011;58477;48.072;11.970;2023-04-24T06:59:17;0.20;;;0.20;;
65206;SDS011;58477;48.072;11.970;2023-04-24T07:01:42;0.20;;;0.20;;
65206;SDS011;58477;48.072;11.970;2023-04-24T07:04:07;0.20;;;0.20;;
65206;SDS011;58477;48.072;11.970;2023-04-24T07:06:33;0.38;;;0.38;;
65206;SDS011;58477;48.072;11.970;2023-04-24T07:09:00;0.47;;;0.20;;
65206;SDS011;58477;48.072;11.970;2023-04-24T07:11:26;0.52;;;0.43;;
65206;SDS011;58477;48.072;11.970;2023-04-24T07:13:54;0.30;;;0.30;;
65206;SDS011;58477;48.072;11.970;2023-04-24T07:16:20;0.30;;;0.20;;
65206;SDS011;58477;48.072;11.970;2023-04-24T07:18:45;0.20;;;0.20;;
65206;SDS011;58477;48.072;11.970;2023-04-24T07:21:10;0.20;;;0.20;;
65206;SDS011;58477;48.072;11.970;2023-04-24T07:23:36;0.20;;;0.20;;
65206;SDS011;58477;48.072;11.970;2023-04-24T07:26:02;1.65;;;0.30;;
65206;SDS011;58477;48.072;11.970;2023-04-24T07:28:27;0.30;;;0.30;;
65206;SDS011;58477;48.072;11.970;2023-04-24T07:30:56;0.30;;;0.30;;
65206;SDS011;58477;48.072;11.970;2023-04-24T07:33:22;0.88;;;0.20;;
65206;SDS011;58477;48.072;11.970;2023-04-24T07:35:47;0.30;;;0.20;;
65206;SDS011;58477;48.072;11.970;2023-04-24T07:38:13;3.30;;;0.20;;
65206;SDS011;58477;48.072;11.970;2023-04-24T07:40:39;0.20;;;0.20;;
65206;SDS011;58477;48.072;11.970;2023-04-24T07:43:04;1.00;;;0.30;;
65206;SDS011;58477;48.072;11.970;2023-04-24T07:45:29;0.30;;;0.30;;
65206;SDS011;58477;48.072;11.970;2023-04-24T07:47:56;0.32;;;0.30;;
65206;SDS011;58477;48.072;11.970;2023-04-24T07:50:21;0.50;;;0.30;;
65206;SDS011;58477;48.072;11.970;2023-04-24T07:52:47;0.55;;;0.20;;
65206;SDS011;58477;48.072;11.970;2023-04-24T07:55:13;0.20;;;0.20;;
65206;SDS011;58477;48.072;11.970;2023-04-24T07:57:38;0.57;;;0.20;;
65206;SDS011;58477;48.072;11.970;2023-04-24T08:00:04;0.20;;;0.20;;
65206;SDS011;58477;48.072;11.970;2023-04-24T08:02:36;0.38;;;0.20;;
65206;SDS011;58477;48.072;11.970;2023-04-24T08:05:02;0.20;;;0.20;;
65206;SDS011;58477;48.072;11.970;2023-04-24T08:07:28;0.20;;;0.20;;
65206;SDS011;58477;48.072;11.970;2023-04-24T08:09:54;0.85;;;0.30;;
65206;SDS011;58477;48.072;11.970;2023-04-24T08:12:20;0.30;;;0.30;;
65206;SDS011;58477;48.072;11.970;2023-04-24T08:14:45;1.45;;;0.30;;
65206;SDS011;58477;48.072;11.970;2023-04-24T08:17:11;3.85;;;0.30;;
65206;SDS011;58477;48.072;11.970;2023-04-24T08:19:36;0.20;;;0.20;;
65206;SDS011;58477;48.072;11.970;2023-04-24T08:22:01;0.20;;;0.20;;
65206;SDS011;58477;48.072;11.970;2023-04-24T08:24:29;0.00;;;0.00;;
65206;SDS011;58477;48.072;11.970;2023-04-24T08:26:54;0.20;;;0.20;;
65206;SDS011;58477;48.072;11.970;2023-04-24T08:29:21;1.38;;;0.30;;
65206;SDS011;58477;48.072;11.970;2023-04-24T08:31:47;0.20;;;0.20;;
65206;SDS011;58477;48.072;11.970;2023-04-24T08:34:12;0.13;;;0.13;;
65206;SDS011;58477;48.072;11.970;2023-04-24T08:36:38;0.22;;;0.22;;
65206;SDS011;58477;48.072;11.970;2023-04-24T08:39:05;0.28;;;0.28;;
65206;SDS011;58477;48.072;11.970;2023-04-24T08:41:31;0.28;;;0.28;;
65206;SDS011;58477;48.072;11.970;2023-04-24T08:43:59;0.30;;;0.30;;
65206;SDS011;58477;48.072;11.970;2023-04-24T08:46:27;0.25;;;0.20;;
65206;SDS011;58477;48.072;11.970;2023-04-24T08:48:52;0.52;;;0.20;;
65206;SDS011;58477;48.072;11.970;2023-04-24T08:51:18;0.20;;;0.20;;
65206;SDS011;58477;48.072;11.970;2023-04-24T08:53:45;0.93;;;0.35;;
65206;SDS011;58477;48.072;11.970;2023-04-24T08:56:11;0.20;;;0.20;;
65206;SDS011;58477;48.072;11.970;2023-04-24T08:58:38;0.28;;;0.28;;
65206;SDS011;58477;48.072;11.970;2023-04-24T09:01:04;0.22;;;0.22;;
65206;SDS011;58477;48.072;11.970;2023-04-24T09:03:30;0.43;;;0.20;;
65206;SDS011;58477;48.072;11.970;2023-04-24T09:05:56;0.75;;;0.50;;
65206;SDS011;58477;48.072;11.970;2023-04-24T09:08:23;0.35;;;0.25;;
65206;SDS011;58477;48.072;11.970;2023-04-24T09:10:50;0.30;;;0.30;;
65206;SDS011;58477;48.072;11.970;2023-04-24T09:13:15;0.43;;;0.43;;
65206;SDS011;58477;48.072;11.970;2023-04-24T09:15:42;0.20;;;0.20;;
65206;SDS011;58477;48.072;11.970;2023-04-24T09:18:07;0.30;;;0.30;;
65206;SDS011;58477;48.072;11.970;2023-04-24T09:20:33;0.50;;;0.50;;
65206;SDS011;58477;48.072;11.970;2023-04-24T09:23:00;1.23;;;0.60;;
65206;SDS011;58477;48.072;11.970;2023-04-24T09:25:32;1.75;;;0.82;;
65206;SDS011;58477;48.072;11.970;2023-04-24T09:28:02;0.40;;;0.40;;
65206;SDS011;58477;48.072;11.970;2023-04-24T09:30:28;0.55;;;0.45;;
65206;SDS011;58477;48.072;11.970;2023-04-24T09:33:13;1.38;;;1.08;;
65206;SDS011;58477;48.072;11.970;2023-04-24T09:35:50;1.40;;;0.80;;
65206;SDS011;58477;48.072;11.970;2023-04-24T09:38:16;0.70;;;0.70;;
65206;SDS011;58477;48.072;11.970;2023-04-24T09:40:42;1.92;;;0.60;;
65206;SDS011;58477;48.072;11.970;2023-04-24T09:43:10;0.80;;;0.80;;
65206;SDS011;58477;48.072;11.970;2023-04-24T09:45:36;0.98;;;0.93;;
65206;SDS011;58477;48.072;11.970;2023-04-24T09:48:04;0.90;;;0.60;;
65206;SDS011;58477;48.072;11.970;2023-04-24T09:50:31;5.68;;;0.80;;
65206;SDS011;58477;48.072;11.970;2023-04-24T09:52:58;1.30;;;0.70;;
65206;SDS011;58477;48.072;11.970;2023-04-24T09:55:26;0.50;;;0.50;;
65206;SDS011;58477;48.072;11.970;2023-04-24T09:57:53;0.55;;;0.55;;
65206;SDS011;58477;48.072;11.970;2023-04-24T10:00:21;0.73;;;0.60;;
65206;SDS011;58477;48.072;11.970;2023-04-24T10:02:58;0.57;;;0.57;;
65206;SDS011;58477;48.072;11.970;2023-04-24T10:05:26;0.40;;;0.40;;
65206;SDS011;58477;48.072;11.970;2023-04-24T10:07:59;0.80;;;0.57;;
65206;SDS011;58477;48.072;11.970;2023-04-24T10:10:32;0.70;;;0.70;;
65206;SDS011;58477;48.072;11.970;2023-04-24T10:12:59;0.95;;;0.68;;
65206;SDS011;58477;48.072;11.970;2023-04-24T10:15:26;0.57;;;0.57;;
65206;SDS011;58477;48.072;11.970;2023-04-24T10:17:51;1.35;;;0.60;;
65206;SDS011;58477;48.072;11.970;2023-04-24T10:20:18;0.50;;;0.50;;
65206;SDS011;58477;48.072;11.970;2023-04-24T10:22:53;0.80;;;0.80;;
65206;SDS011;58477;48.072;11.970;2023-04-24T10:25:19;1.15;;;0.73;;
65206;SDS011;58477;48.072;11.970;2023-04-24T10:27:47;1.25;;;0.70;;
65206;SDS011;58477;48.072;11.970;2023-04-24T10:30:13;4.78;;;1.13;;
65206;SDS011;58477;48.072;11.970;2023-04-24T10:32:39;1.13;;;0.80;;
65206;SDS011;58477;48.072;11.970;2023-04-24T10:35:08;0.70;;;0.70;;
65206;SDS011;58477;48.072;11.970;2023-04-24T10:37:38;0.95;;;0.70;;
65206;SDS011;58477;48.072;11.970;2023-04-24T10:40:25;0.60;;;0.55;;
65206;SDS011;58477;48.072;11.970;2023-04-24T10:42:56;0.88;;;0.63;;
65206;SDS011;58477;48.072;11.970;2023-04-24T10:45:22;0.73;;;0.52;;
65206;SDS011;58477;48.072;11.970;2023-04-24T10:47:58;0.82;;;0.52;;
65206;SDS011;58477;48.072;11.970;2023-04-24T10:50:29;0.45;;;0.45;;
65206;SDS011;58477;48.072;11.970;2023-04-24T10:53:07;1.45;;;0.88;;
65206;SDS011;58477;48.072;11.970;2023-04-24T10:55:44;1.00;;;0.90;;
65206;SDS011;58477;48.072;11.970;2023-04-24T10:58:14;1.90;;;0.68;;
65206;SDS011;58477;48.072;11.970;2023-04-24T11:00:42;0.60;;;0.60;;
65206;SDS011;58477;48.072;11.970;2023-04-24T11:05:56;0.73;;;0.60;;
65206;SDS011;58477;48.072;11.970;2023-04-24T11:08:23;1.20;;;0.80;;
65206;SDS011;58477;48.072;11.970;2023-04-24T11:11:08;2.80;;;0.77;;
65206;SDS011;58477;48.072;11.970;2023-04-24T11:16:28;2.85;;;0.80;;
65206;SDS011;58477;48.072;11.970;2023-04-24T11:19:02;0.82;;;0.80;;
65206;SDS011;58477;48.072;11.970;2023-04-24T11:21:38;0.80;;;0.80;;
65206;SDS011;58477;48.072;11.970;2023-04-24T11:27:18;0.63;;;0.63;;
65206;SDS011;58477;48.072;11.970;2023-04-24T11:32:24;0.80;;;0.70;;
65206;SDS011;58477;48.072;11.970;2023-04-24T11:37:33;0.85;;;0.63;;
65206;SDS011;58477;48.072;11.970;2023-04-24T11:39:59;0.82;;;0.70;;
65206;SDS011;58477;48.072;11.970;2023-04-24T11:42:24;0.60;;;0.50;;
65206;SDS011;58477;48.072;11.970;2023-04-24T11:44:53;0.70;;;0.70;;
65206;SDS011;58477;48.072;11.970;2023-04-24T11:47:30;0.70;;;0.70;;
65206;SDS011;58477;48.072;11.970;2023-04-24T11:49:56;0.40;;;0.40;;
65206;SDS011;58477;48.072;11.970;2023-04-24T11:52:23;0.90;;;0.70;;
65206;SDS011;58477;48.072;11.970;2023-04-24T11:54:51;0.70;;;0.70;;
65206;SDS011;58477;48.072;11.970;2023-04-24T11:57:19;1.23;;;0.80;;
65206;SDS011;58477;48.072;11.970;2023-04-24T11:59:45;1.95;;;1.05;;
65206;SDS011;58477;48.072;11.970;2023-04-24T12:02:24;1.17;;;0.85;;
65206;SDS011;58477;48.072;11.970;2023-04-24T12:04:51;3.10;;;0.75;;
65206;SDS011;58477;48.072;11.970;2023-04-24T12:07:17;0.60;;;0.60;;
65206;SDS011;58477;48.072;11.970;2023-04-24T12:10:04;1.55;;;0.80;;
65206;SDS011;58477;48.072;11.970;2023-04-24T12:12:30;0.98;;;0.80;;
65206;SDS011;58477;48.072;11.970;2023-04-24T12:14:56;1.38;;;1.20;;
65206;SDS011;58477;48.072;11.970;2023-04-24T12:17:26;2.72;;;0.80;;
65206;SDS011;58477;48.072;11.970;2023-04-24T12:20:03;0.75;;;0.75;;
65206;SDS011;58477;48.072;11.970;2023-04-24T12:22:49;1.02;;;1.02;;
65206;SDS011;58477;48.072;11.970;2023-04-24T12:25:18;2.38;;;0.95;;
65206;SDS011;58477;48.072;11.970;2023-04-24T12:27:45;1.17;;;1.00;;
65206;SDS011;58477;48.072;11.970;2023-04-24T12:30:12;1.05;;;0.98;;
65206;SDS011;58477;48.072;11.970;2023-04-24T12:32:43;0.82;;;0.82;;
65206;SDS011;58477;48.072;11.970;2023-04-24T12:35:12;2.15;;;0.90;;
65206;SDS011;58477;48.072;11.970;2023-04-24T12:37:38;1.33;;;0.90;;
65206;SDS011;58477;48.072;11.970;2023-04-24T12:40:11;0.63;;;0.63;;
65206;SDS011;58477;48.072;11.970;2023-04-24T12:42:44;1.10;;;1.08;;
65206;SDS011;58477;48.072;11.970;2023-04-24T12:45:11;1.00;;;0.90;;
65206;SDS011;58477;48.072;11.970;2023-04-24T12:47:38;3.35;;;1.30;;
65206;SDS011;58477;48.072;11.970;2023-04-24T12:50:04;4.43;;;1.33;;
65206;SDS011;58477;48.072;11.970;2023-04-24T12:52:31;0.77;;;0.77;;
65206;SDS011;58477;48.072;11.970;2023-04-24T12:54:59;1.50;;;1.00;;
65206;SDS011;58477;48.072;11.970;2023-04-24T12:57:26;1.48;;;0.90;;
65206;SDS011;58477;48.072;11.970;2023-04-24T12:59:54;1.08;;;0.88;;
65206;SDS011;58477;48.072;11.970;2023-04-24T13:02:21;2.60;;;0.93;;
65206;SDS011;58477;48.072;11.970;2023-04-24T13:04:47;1.25;;;0.77;;
65206;SDS011;58477;48.072;11.970;2023-04-24T13:07:13;1.50;;;0.80;;
65206;SDS011;58477;48.072;11.970;2023-04-24T13:09:40;1.05;;;0.80;;
65206;SDS011;58477;48.072;11.970;2023-04-24T13:12:06;2.45;;;1.10;;
65206;SDS011;58477;48.072;11.970;2023-04-24T13:18:19;0.70;;;0.70;;
65206;SDS011;58477;48.072;11.970;2023-04-24T13:20:45;0.98;;;0.98;;
65206;SDS011;58477;48.072;11.970;2023-04-24T13:23:12;0.82;;;0.82;;
65206;SDS011;58477;48.072;11.970;2023-04-24T13:25:37;0.88;;;0.88;;
65206;SDS011;58477;48.072;11.970;2023-04-24T13:28:04;1.30;;;1.20;;
65206;SDS011;58477;48.072;11.970;2023-04-24T13:30:29;0.80;;;0.80;;
65206;SDS011;58477;48.072;11.970;2023-04-24T13:32:55;1.05;;;0.90;;
65206;SDS011;58477;48.072;11.970;2023-04-24T13:35:21;1.92;;;1.30;;
65206;SDS011;58477;48.072;11.970;2023-04-24T13:37:46;1.00;;;0.90;;
65206;SDS011;58477;48.072;11.970;2023-04-24T13:40:12;1.35;;;0.90;;
65206;SDS011;58477;48.072;11.970;2023-04-24T13:42:37;1.08;;;1.08;;
65206;SDS011;58477;48.072;11.970;2023-04-24T13:45:03;2.05;;;0.80;;
65206;SDS011;58477;48.072;11.970;2023-04-24T13:47:28;2.80;;;1.00;;
65206;SDS011;58477;48.072;11.970;2023-04-24T13:49:54;0.88;;;0.88;;
65206;SDS011;58477;48.072;11.970;2023-04-24T13:52:19;3.22;;;1.02;;
65206;SDS011;58477;48.072;11.970;2023-04-24T13:54:45;0.57;;;0.57;;
65206;SDS011;58477;48.072;11.970;2023-04-24T13:57:10;1.83;;;0.93;;
65206;SDS011;58477;48.072;11.970;2023-04-24T13:59:35;1.95;;;0.98;;
65206;SDS011;58477;48.072;11.970;2023-04-24T14:02:02;1.17;;;1.00;;
65206;SDS011;58477;48.072;11.970;2023-04-24T14:04:27;1.20;;;1.10;;
65206;SDS011;58477;48.072;11.970;2023-04-24T14:06:52;1.23;;;1.10;;
65206;SDS011;58477;48.072;11.970;2023-04-24T14:09:18;1.45;;;0.93;;
65206;SDS011;58477;48.072;11.970;2023-04-24T14:11:43;2.00;;;0.95;;
65206;SDS011;58477;48.072;11.970;2023-04-24T14:14:09;1.40;;;1.23;;
65206;SDS011;58477;48.072;11.970;2023-04-24T14:16:34;1.10;;;0.98;;
65206;SDS011;58477;48.072;11.970;2023-04-24T14:19:00;2.13;;;1.40;;
65206;SDS011;58477;48.072;11.970;2023-04-24T14:21:25;1.20;;;1.02;;
65206;SDS011;58477;48.072;11.970;2023-04-24T14:23:51;1.48;;;1.15;;
65206;SDS011;58477;48.072;11.970;2023-04-24T14:26:16;0.95;;;0.95;;
65206;SDS011;58477;48.072;11.970;2023-04-24T14:28:41;1.83;;;1.13;;
65206;SDS011;58477;48.072;11.970;2023-04-24T14:31:07;0.93;;;0.90;;
65206;SDS011;58477;48.072;11.970;2023-04-24T14:33:33;1.38;;;1.27;;
65206;SDS011;58477;48.072;11.970;2023-04-24T14:35:58;1.98;;;1.05;;
65206;SDS011;58477;48.072;11.970;2023-04-24T14:38:24;3.90;;;1.30;;
65206;SDS011;58477;48.072;11.970;2023-04-24T14:40:49;1.35;;;1.25;;
65206;SDS011;58477;48.072;11.970;2023-04-24T14:43:15;2.05;;;1.05;;
65206;SDS011;58477;48.072;11.970;2023-04-24T14:45:40;1.33;;;1.00;;
65206;SDS011;58477;48.072;11.970;2023-04-24T14:48:06;2.45;;;1.17;;
65206;SDS011;58477;48.072;11.970;2023-04-24T14:50:33;1.05;;;1.05;;
65206;SDS011;58477;48.072;11.970;2023-04-24T14:52:58;2.17;;;0.98;;